496  
SXUS55 KTFX 161722  
OSOTFX  
 
AREA AWOS OBSERVATIONS  
NATIONAL WEATHER SERVICE GREAT FALLS MT  
1121 AM MDT TUE OCT 16 2018  
 
METAR K6S0 161720Z AUTO 25015KT 10SM CLR 11/M03 A3041 RMK A01  
METAR K7S0 161720Z AUTO 00000KT 10SM 07/01 A3047 RMK A01  
 
CLICK HERE TO GO TO PREVIOUS BULLETINS.

The Nexlab MT Page Main Text Page